createdAt,value
2019-03-01T00:01:16.384Z,67.37
2019-03-01T00:03:44.698Z,74.51
2019-03-01T00:06:22.102Z,77.67
2019-03-01T00:09:13.338Z,77.24
2019-03-01T00:12:00.603Z,77.49
2019-03-01T00:15:22.140Z,64.92
2019-03-01T00:18:16.251Z,76.93
2019-03-01T00:21:10.920Z,66.12
2019-03-01T00:24:23.314Z,73.96
2019-03-01T00:27:22.630Z,75.43
2019-03-01T00:30:35.628Z,63.48
2019-03-01T00:33:55.440Z,70.19
2019-03-01T00:37:19.270Z,76.23
2019-03-01T00:39:59.630Z,68.89
2019-03-01T00:43:05.200Z,76.39
2019-03-01T00:45:33.336Z,77.64
2019-03-01T00:48:01.453Z,64.15
2019-03-01T00:50:29.807Z,77.11
2019-03-01T00:52:57.984Z,71.48
2019-03-01T00:55:26.153Z,77.08
2019-03-01T00:57:54.280Z,73.34
2019-03-01T01:00:27.933Z,65.32
2019-03-01T01:02:56.145Z,76.71
2019-03-01T01:05:24.286Z,75.26
2019-03-01T01:07:52.454Z,76.16
2019-03-01T01:10:20.669Z,73.44
2019-03-01T01:12:48.863Z,76.11
2019-03-01T01:15:16.983Z,76.74
2019-03-01T01:17:45.144Z,76.82
2019-03-01T01:20:13.352Z,77.90
2019-03-01T01:22:41.817Z,74.38
2019-03-01T01:25:10.116Z,73.32
2019-03-01T01:27:41.009Z,65.81
2019-03-01T01:30:10.723Z,74.05
2019-03-01T01:32:38.814Z,75.70
2019-03-01T01:35:06.988Z,76.45
2019-03-01T01:37:35.159Z,76.95
2019-03-01T01:40:03.375Z,68.94
2019-03-01T01:42:31.547Z,76.20
2019-03-01T01:44:59.745Z,66.47
2019-03-01T01:47:28.010Z,71.15
2019-03-01T01:49:56.187Z,77.43
2019-03-01T01:52:24.320Z,77.13
2019-03-01T01:54:52.522Z,67.09
2019-03-01T01:57:20.667Z,74.82
2019-03-01T01:59:48.775Z,73.96
2019-03-01T02:02:16.941Z,69.40
2019-03-01T02:04:45.156Z,73.42
2019-03-01T02:07:13.583Z,68.23
2019-03-01T02:09:41.778Z,68.20
2019-03-01T02:12:10.239Z,65.33
2019-03-01T02:14:39.105Z,72.80
2019-03-01T02:17:07.379Z,71.87
2019-03-01T02:19:35.594Z,77.52
2019-03-01T02:22:03.719Z,76.63
2019-03-01T02:24:31.892Z,78.15
2019-03-01T02:27:24.072Z,75.85
2019-03-01T02:29:52.258Z,74.63
2019-03-01T02:32:28.866Z,78.08
2019-03-01T02:34:57.064Z,72.25
2019-03-01T02:37:25.273Z,75.92
2019-03-01T02:39:53.463Z,77.49
2019-03-01T02:42:21.706Z,77.95
2019-03-01T02:44:49.890Z,78.46
2019-03-01T02:47:18.053Z,78.22
2019-03-01T02:49:46.246Z,68.53
2019-03-01T02:52:14.600Z,77.46
2019-03-01T02:54:43.073Z,77.96
2019-03-01T02:57:11.508Z,77.79
2019-03-01T02:59:39.671Z,78.41
2019-03-01T03:02:07.908Z,74.20
2019-03-01T03:04:36.255Z,77.34
2019-03-01T03:07:23.415Z,78.00
2019-03-01T03:09:51.651Z,78.38
2019-03-01T03:15:09.127Z,78.82
2019-03-01T03:17:37.245Z,79.33
2019-03-01T03:20:05.867Z,77.14
2019-03-01T03:22:34.037Z,77.92
2019-03-01T03:25:02.234Z,77.99
2019-03-01T03:27:30.410Z,78.73
2019-03-01T03:29:58.531Z,78.99
2019-03-01T03:32:26.986Z,77.54
2019-03-01T03:34:55.116Z,76.79
2019-03-01T03:37:23.211Z,67.35
2019-03-01T03:39:51.354Z,76.81
2019-03-01T03:42:19.534Z,76.75
2019-03-01T03:44:47.734Z,66.67
2019-03-01T03:47:15.879Z,77.69
2019-03-01T03:49:44.223Z,74.83
2019-03-01T03:52:13.022Z,77.92
2019-03-01T03:54:41.418Z,73.49
2019-03-01T03:57:09.574Z,76.74
2019-03-01T03:59:37.720Z,68.03
2019-03-01T04:02:06.281Z,74.31
2019-03-01T04:04:34.482Z,77.03
2019-03-01T04:07:02.622Z,73.50
2019-03-01T04:09:31.257Z,69.58
2019-03-01T04:11:59.384Z,77.01
2019-03-01T04:14:27.509Z,77.46
2019-03-01T04:16:55.780Z,76.27
2019-03-01T04:19:24.010Z,71.88
2019-03-01T04:21:52.351Z,73.33
2019-03-01T04:24:20.501Z,75.59
2019-03-01T04:26:49.001Z,77.16
2019-03-01T04:29:17.447Z,75.43
2019-03-01T04:31:46.009Z,76.56
2019-03-01T04:34:14.437Z,68.75
2019-03-01T04:36:42.601Z,77.37
2019-03-01T04:39:10.740Z,77.58
2019-03-01T04:41:38.996Z,73.34
2019-03-01T04:44:07.797Z,71.13
2019-03-01T04:46:35.925Z,76.92
2019-03-01T04:49:04.062Z,76.52
2019-03-01T04:51:55.716Z,76.28
2019-03-01T04:54:24.012Z,77.49
2019-03-01T04:56:52.234Z,72.30
2019-03-01T04:59:20.663Z,72.36
2019-03-01T05:01:48.766Z,72.52
2019-03-01T05:04:16.973Z,77.20
2019-03-01T05:06:45.127Z,76.62
2019-03-01T05:09:13.588Z,67.94
2019-03-01T05:11:41.845Z,77.13
2019-03-01T05:14:10.062Z,77.77
2019-03-01T05:16:38.261Z,77.08
2019-03-01T05:19:06.449Z,77.39
2019-03-01T05:21:34.577Z,77.62
2019-03-01T05:24:02.890Z,70.26
2019-03-01T05:26:34.996Z,77.28
2019-03-01T05:29:03.194Z,76.55
2019-03-01T05:31:31.685Z,67.98
2019-03-01T05:34:00.063Z,77.99
2019-03-01T05:36:28.294Z,78.34
2019-03-01T05:38:56.477Z,78.26
2019-03-01T05:41:24.789Z,78.14
2019-03-01T05:43:52.961Z,74.30
2019-03-01T05:46:21.560Z,78.00
2019-03-01T05:48:49.705Z,78.49
2019-03-01T05:51:17.865Z,77.99
2019-03-01T05:53:46.170Z,77.85
2019-03-01T05:56:14.375Z,78.21
2019-03-01T05:59:07.277Z,67.57
2019-03-01T06:01:43.960Z,77.00
2019-03-01T06:04:41.280Z,76.90
2019-03-01T06:07:59.279Z,75.99
2019-03-01T06:10:51.624Z,72.83
2019-03-01T06:14:06.150Z,77.87
2019-03-01T06:17:14.484Z,78.32
2019-03-01T06:20:11.811Z,78.17
2019-03-01T06:23:12.031Z,78.00
2019-03-01T06:26:18.300Z,70.95
2019-03-01T06:29:45.527Z,75.54
2019-03-01T06:32:54.317Z,76.48
2019-03-01T06:35:49.616Z,78.51
2019-03-01T06:39:18.125Z,76.66
2019-03-01T06:42:15.697Z,78.86
2019-03-01T06:45:16.166Z,78.30
2019-03-01T06:47:47.551Z,79.06
2019-03-01T06:50:20.491Z,78.65
2019-03-01T06:52:48.845Z,69.13
2019-03-01T06:55:35.787Z,78.70
2019-03-01T06:58:03.948Z,79.32
2019-03-01T07:03:45.462Z,78.97
2019-03-01T07:06:13.663Z,78.59
2019-03-01T07:08:41.983Z,79.29
2019-03-01T07:11:10.160Z,78.96
2019-03-01T07:13:38.526Z,79.09
2019-03-01T07:16:06.962Z,79.02
2019-03-01T07:18:35.270Z,77.02
2019-03-01T07:21:03.556Z,78.29
2019-03-01T07:23:36.780Z,78.76
2019-03-01T07:26:01.690Z,77.85
2019-03-01T07:28:30.013Z,78.65
2019-03-01T07:30:58.282Z,72.65
2019-03-01T07:33:26.953Z,77.54
2019-03-01T07:35:55.099Z,77.76
2019-03-01T07:38:23.243Z,74.86
2019-03-01T07:40:51.483Z,76.26
2019-03-01T07:43:19.595Z,75.04
2019-03-01T07:45:47.837Z,76.68
2019-03-01T07:48:16.452Z,76.59
2019-03-01T07:50:44.805Z,76.85
2019-03-01T07:53:13.265Z,76.79
2019-03-01T07:55:41.481Z,77.11
2019-03-01T07:58:09.859Z,72.28
2019-03-01T08:00:38.207Z,76.33
2019-03-01T08:03:06.355Z,73.75
2019-03-01T08:05:35.608Z,76.90
2019-03-01T08:08:04.868Z,77.62
2019-03-01T08:10:33.026Z,76.26
2019-03-01T08:13:21.701Z,77.90
2019-03-01T08:15:50.032Z,77.55
2019-03-01T08:18:18.246Z,77.68
2019-03-01T08:20:46.492Z,78.20
2019-03-01T08:23:14.802Z,72.86
2019-03-01T08:25:42.944Z,76.24
2019-03-01T08:28:11.264Z,78.40
2019-03-01T08:30:42.454Z,77.15
2019-03-01T08:33:09.532Z,78.82
2019-03-01T08:35:37.871Z,78.27
2019-03-01T08:38:06.051Z,79.47
2019-03-01T08:40:34.304Z,78.15
2019-03-01T08:43:02.455Z,77.64
2019-03-01T08:45:32.953Z,72.11
2019-03-01T08:48:00.608Z,77.82
2019-03-01T08:50:29.031Z,76.63
2019-03-01T08:52:57.377Z,73.78
2019-03-01T08:55:25.741Z,74.36
2019-03-01T08:57:54.202Z,77.06
2019-03-01T09:00:26.984Z,68.40
2019-03-01T09:02:57.135Z,67.39
2019-03-01T09:05:25.497Z,75.64
2019-03-01T09:07:53.751Z,76.58
2019-03-01T09:10:22.128Z,75.85
2019-03-01T09:12:50.998Z,75.24
2019-03-01T09:15:19.515Z,72.58
2019-03-01T09:17:47.798Z,76.15
2019-03-01T09:20:16.390Z,76.19
2019-03-01T09:22:44.840Z,76.12
2019-03-01T09:25:13.335Z,73.38
2019-03-01T09:27:41.784Z,74.46
2019-03-01T09:30:16.400Z,74.84
2019-03-01T09:32:44.710Z,75.93
2019-03-01T09:35:32.207Z,75.64
2019-03-01T09:38:01.045Z,68.34
2019-03-01T09:40:29.698Z,73.26
2019-03-01T09:42:57.993Z,74.43
2019-03-01T09:45:35.570Z,72.61
2019-03-01T09:47:56.150Z,73.95
2019-03-01T09:50:24.439Z,70.04
2019-03-01T09:52:55.476Z,73.40
2019-03-01T09:55:22.634Z,72.68
2019-03-01T09:57:50.855Z,72.68
2019-03-01T10:00:21.721Z,72.99
2019-03-01T10:02:49.882Z,75.78
2019-03-01T10:05:18.693Z,76.79
2019-03-01T10:07:47.001Z,77.91
2019-03-01T10:10:18.923Z,76.67
2019-03-01T10:12:47.369Z,77.86
2019-03-01T10:15:15.625Z,77.14
2019-03-01T10:17:44.105Z,77.27
2019-03-01T10:20:13.615Z,73.00
2019-03-01T10:22:41.892Z,74.83
2019-03-01T10:25:11.954Z,75.50
2019-03-01T10:27:40.476Z,71.16
2019-03-01T10:30:15.090Z,75.29
2019-03-01T10:32:43.379Z,72.95
2019-03-01T10:35:12.496Z,75.98
2019-03-01T10:37:40.648Z,75.01
2019-03-01T10:40:10.644Z,77.33
2019-03-01T10:42:38.855Z,75.36
2019-03-01T10:45:09.068Z,73.30
2019-03-01T10:47:37.360Z,76.49
2019-03-01T10:50:06.328Z,76.73
2019-03-01T10:52:34.453Z,76.93
2019-03-01T10:55:02.592Z,74.80
2019-03-01T10:57:30.774Z,75.59
2019-03-01T10:59:59.211Z,78.78
2019-03-01T11:02:27.397Z,77.25
2019-03-01T11:04:55.752Z,77.59
2019-03-01T11:07:24.027Z,76.50
2019-03-01T11:09:52.231Z,78.37
2019-03-01T11:12:20.638Z,78.73
2019-03-01T11:14:49.151Z,77.16
2019-03-01T11:17:17.486Z,81.26
2019-03-01T11:19:45.892Z,79.15
2019-03-01T11:22:14.223Z,79.77
2019-03-01T11:24:42.368Z,76.39
2019-03-01T11:27:13.036Z,78.85
2019-03-01T11:29:40.540Z,79.95
2019-03-01T11:32:08.784Z,74.75
2019-03-01T11:34:37.034Z,78.35
2019-03-01T11:37:05.254Z,76.23
2019-03-01T11:39:33.536Z,73.77
2019-03-01T11:42:02.004Z,76.36
2019-03-01T11:44:30.248Z,78.05
2019-03-01T11:46:58.472Z,79.36
2019-03-01T11:49:26.631Z,76.89
2019-03-01T11:51:54.847Z,76.75
2019-03-01T11:54:23.465Z,71.06
2019-03-01T11:56:53.716Z,67.82
2019-03-01T11:59:22.345Z,75.15
2019-03-01T12:01:50.625Z,72.64
2019-03-01T12:04:19.087Z,76.30
2019-03-01T12:06:47.955Z,74.46
2019-03-01T12:09:16.334Z,72.12
2019-03-01T12:11:44.631Z,75.89
2019-03-01T12:14:12.767Z,76.46
2019-03-01T12:16:41.113Z,73.79
2019-03-01T12:19:09.482Z,73.67
2019-03-01T12:21:38.022Z,76.95
2019-03-01T12:24:06.302Z,76.22
2019-03-01T12:26:34.668Z,75.03
2019-03-01T12:29:02.983Z,76.95
2019-03-01T12:31:31.410Z,77.88
2019-03-01T12:33:59.805Z,76.09
2019-03-01T12:36:28.091Z,77.82
2019-03-01T12:38:56.350Z,77.54
2019-03-01T12:41:24.818Z,76.59
2019-03-01T12:43:53.213Z,78.37
2019-03-01T12:46:21.508Z,77.34
2019-03-01T12:48:49.706Z,76.41
2019-03-01T12:51:17.917Z,76.77
2019-03-01T12:53:46.158Z,77.12
2019-03-01T12:56:14.371Z,77.71
2019-03-01T12:58:42.567Z,75.04
2019-03-01T13:01:10.740Z,78.76
2019-03-01T13:03:40.663Z,74.80
2019-03-01T13:06:08.958Z,80.72
2019-03-01T13:08:37.307Z,78.13
2019-03-01T13:11:05.708Z,79.28
2019-03-01T13:13:34.656Z,76.21
2019-03-01T13:16:04.037Z,77.61
2019-03-01T13:18:32.251Z,77.19
2019-03-01T13:21:00.501Z,77.94
2019-03-01T13:23:28.948Z,74.54
2019-03-01T13:25:57.971Z,75.38
2019-03-01T13:28:26.503Z,76.21
2019-03-01T13:30:54.731Z,75.01
2019-03-01T13:33:23.123Z,76.72
2019-03-01T13:35:51.688Z,75.34
2019-03-01T13:38:20.093Z,77.77
2019-03-01T13:40:48.727Z,78.23
2019-03-01T13:43:23.791Z,76.75
2019-03-01T13:45:53.459Z,76.39
2019-03-01T13:48:22.762Z,77.68
2019-03-01T13:50:51.648Z,76.13
2019-03-01T13:53:19.989Z,75.49
2019-03-01T13:55:48.432Z,77.71
2019-03-01T13:58:16.902Z,75.43
2019-03-01T14:00:45.656Z,75.94
2019-03-01T14:03:15.487Z,76.46
2019-03-01T14:05:43.875Z,74.58
2019-03-01T14:08:12.288Z,76.55
2019-03-01T14:10:41.814Z,74.34
2019-03-01T14:13:14.431Z,76.25
2019-03-01T14:15:40.766Z,74.59
2019-03-01T14:18:09.247Z,78.15
2019-03-01T14:20:37.781Z,77.22
2019-03-01T14:23:06.325Z,77.48
2019-03-01T14:25:34.812Z,77.61
2019-03-01T14:28:05.150Z,76.04
2019-03-01T14:30:33.754Z,77.16
2019-03-01T14:33:02.093Z,75.65
2019-03-01T14:35:30.483Z,74.41
2019-03-01T14:37:58.855Z,77.88
2019-03-01T14:40:27.720Z,73.56
2019-03-01T14:42:56.293Z,79.71
2019-03-01T14:45:25.944Z,77.91
2019-03-01T14:47:55.726Z,77.35
2019-03-01T14:50:25.016Z,74.87
2019-03-01T14:52:58.470Z,77.51
2019-03-01T14:55:27.438Z,78.87
2019-03-01T14:58:03.080Z,76.63
2019-03-01T15:00:39.281Z,77.47
2019-03-01T15:03:31.120Z,79.28
2019-03-01T15:05:59.454Z,77.30
2019-03-01T15:08:27.945Z,75.73
2019-03-01T15:10:56.619Z,75.19
2019-03-01T15:13:25.097Z,77.46
2019-03-01T15:15:53.549Z,80.39
2019-03-01T15:18:21.999Z,76.84
2019-03-01T15:20:50.355Z,78.19
2019-03-01T15:23:20.780Z,79.01
2019-03-01T15:25:49.153Z,75.03
2019-03-01T15:28:17.902Z,79.10
2019-03-01T15:30:47.285Z,75.66
2019-03-01T15:33:16.171Z,77.40
2019-03-01T15:35:45.336Z,77.28
2019-03-01T15:38:13.659Z,72.30
2019-03-01T15:40:42.087Z,74.88
2019-03-01T15:43:10.567Z,71.45
2019-03-01T15:45:39.880Z,75.59
2019-03-01T15:48:09.093Z,73.06
2019-03-01T15:50:37.624Z,72.61
2019-03-01T15:53:05.987Z,74.55
2019-03-01T15:55:34.330Z,74.17
2019-03-01T15:58:02.708Z,74.79
2019-03-01T16:00:31.216Z,75.74
2019-03-01T16:03:00.502Z,71.00
2019-03-01T16:05:29.158Z,73.33
2019-03-01T16:07:58.028Z,71.38
2019-03-01T16:10:26.736Z,74.09
2019-03-01T16:12:54.935Z,72.93
2019-03-01T16:15:23.228Z,75.32
2019-03-01T16:17:51.616Z,73.63
2019-03-01T16:20:20.141Z,72.22
2019-03-01T16:22:56.076Z,73.62
2019-03-01T16:25:24.584Z,73.44
2019-03-01T16:27:54.212Z,70.63
2019-03-01T16:30:23.352Z,73.93
2019-03-01T16:32:51.609Z,74.05
2019-03-01T16:35:19.989Z,71.83
2019-03-01T16:40:25.016Z,68.97
2019-03-01T16:42:54.665Z,74.85
2019-03-01T16:45:23.619Z,71.97
2019-03-01T16:47:51.976Z,75.54
2019-03-01T16:50:20.397Z,72.53
2019-03-01T16:52:49.020Z,73.78
2019-03-01T16:55:18.001Z,73.01
2019-03-01T16:57:48.672Z,71.54
2019-03-01T17:00:18.120Z,72.08
2019-03-01T17:02:47.997Z,73.87
2019-03-01T17:05:16.649Z,75.40
2019-03-01T17:07:44.983Z,75.72
2019-03-01T17:10:15.600Z,72.65
2019-03-01T17:12:43.190Z,74.14
2019-03-01T17:15:14.897Z,76.51
2019-03-01T17:17:43.975Z,76.15
2019-03-01T17:20:12.398Z,73.22
2019-03-01T17:22:40.883Z,72.66
2019-03-01T17:25:09.368Z,75.33
2019-03-01T17:27:40.036Z,73.41
2019-03-01T17:30:11.118Z,73.97
2019-03-01T17:32:39.914Z,76.12
2019-03-01T17:35:08.936Z,73.49
2019-03-01T17:37:37.998Z,76.22
2019-03-01T17:40:06.883Z,74.55
2019-03-01T17:42:35.141Z,73.68
2019-03-01T17:45:04.499Z,72.38
2019-03-01T17:47:33.129Z,69.95
2019-03-01T17:50:01.670Z,68.32
2019-03-01T17:52:33.710Z,69.04
2019-03-01T17:55:02.768Z,68.65
2019-03-01T17:57:32.946Z,70.61
2019-03-01T18:00:02.593Z,70.21
2019-03-01T18:02:30.831Z,67.66
2019-03-01T18:04:59.079Z,70.39
2019-03-01T18:07:28.272Z,70.80
2019-03-01T18:09:56.951Z,70.37
2019-03-01T18:12:25.756Z,67.77
2019-03-01T18:14:54.343Z,66.75
2019-03-01T18:17:23.165Z,67.93
2019-03-01T18:19:51.560Z,67.27
2019-03-01T18:22:22.909Z,69.76
2019-03-01T18:24:49.895Z,67.58
2019-03-01T18:27:19.331Z,67.02
2019-03-01T18:29:47.904Z,67.21
2019-03-01T18:32:17.241Z,66.79
2019-03-01T18:34:45.804Z,68.53
2019-03-01T18:37:19.415Z,66.82
2019-03-01T18:39:45.460Z,69.15
2019-03-01T18:42:38.069Z,68.72
2019-03-01T18:45:07.070Z,67.94
2019-03-01T18:47:37.972Z,69.50
2019-03-01T18:50:09.966Z,70.85
2019-03-01T18:52:39.786Z,71.83
2019-03-01T18:55:10.108Z,71.09
2019-03-01T18:57:39.693Z,71.36
2019-03-01T19:00:32.455Z,70.12
2019-03-01T19:03:05.499Z,71.85
2019-03-01T19:05:36.678Z,71.89
2019-03-01T19:08:06.499Z,72.49
2019-03-01T19:10:35.877Z,71.03
2019-03-01T19:13:08.275Z,72.53
2019-03-01T19:15:38.399Z,71.04
2019-03-01T19:18:08.127Z,69.77
2019-03-01T19:20:38.024Z,70.37
2019-03-01T19:23:08.485Z,71.19
2019-03-01T19:25:38.281Z,70.61
2019-03-01T19:28:08.152Z,68.51
2019-03-01T19:30:37.897Z,68.65
2019-03-01T19:33:07.901Z,69.27
2019-03-01T19:35:38.637Z,70.75
2019-03-01T19:38:08.916Z,71.91
2019-03-01T19:40:39.193Z,71.54
2019-03-01T19:43:10.299Z,72.58
2019-03-01T19:45:41.770Z,69.14
2019-03-01T19:48:11.933Z,71.96
2019-03-01T19:50:43.575Z,69.39
2019-03-01T19:53:13.741Z,71.01
2019-03-01T19:55:44.033Z,71.38
2019-03-01T19:58:16.862Z,68.59
2019-03-01T20:00:46.567Z,71.71
2019-03-01T20:03:16.313Z,71.30
2019-03-01T20:05:52.647Z,67.56
2019-03-01T20:08:22.431Z,69.00
2019-03-01T20:10:52.578Z,66.09
2019-03-01T20:13:22.405Z,68.14
2019-03-01T20:15:52.872Z,68.20
2019-03-01T20:18:21.570Z,68.28
2019-03-01T20:20:51.590Z,67.88
2019-03-01T20:26:11.627Z,68.38
2019-03-01T20:28:43.648Z,67.29
2019-03-01T20:31:14.912Z,70.62
2019-03-01T20:33:45.146Z,71.16
2019-03-01T20:36:17.640Z,70.12
2019-03-01T20:38:47.178Z,68.20
2019-03-01T20:41:17.145Z,71.57
2019-03-01T20:43:47.344Z,71.17
2019-03-01T20:46:17.529Z,72.06
2019-03-01T20:48:47.557Z,71.67
2019-03-01T20:51:17.451Z,70.87
2019-03-01T20:53:49.501Z,68.47
2019-03-01T20:56:20.031Z,71.18
2019-03-01T20:58:49.981Z,72.89
2019-03-01T21:01:22.538Z,67.12
2019-03-01T21:03:52.536Z,72.12
2019-03-01T21:06:22.146Z,67.20
2019-03-01T21:08:52.516Z,69.38
2019-03-01T21:11:25.317Z,71.98
2019-03-01T21:13:55.292Z,73.76
2019-03-01T21:16:25.068Z,68.41
2019-03-01T21:18:53.853Z,69.09
2019-03-01T21:21:25.593Z,70.96
2019-03-01T21:23:54.161Z,68.59
2019-03-01T21:26:24.073Z,71.39
2019-03-01T21:28:53.512Z,69.58
2019-03-01T21:31:23.187Z,71.90
2019-03-01T21:33:52.734Z,70.00
2019-03-01T21:36:22.913Z,70.72
2019-03-01T21:38:51.254Z,69.72
2019-03-01T21:41:19.871Z,72.50
2019-03-01T21:43:48.729Z,72.16
2019-03-01T21:46:18.207Z,71.98
2019-03-01T21:48:47.481Z,71.29
2019-03-01T21:51:18.522Z,72.20
2019-03-01T21:53:47.123Z,66.49
2019-03-01T21:56:34.725Z,66.89
2019-03-01T21:59:04.290Z,67.31
2019-03-01T22:01:33.083Z,66.59
2019-03-01T22:04:02.529Z,68.65
2019-03-01T22:06:31.656Z,65.18
2019-03-01T22:09:00.972Z,67.46
2019-03-01T22:11:29.364Z,66.34
2019-03-01T22:13:59.188Z,65.43
2019-03-01T22:16:27.458Z,66.22
2019-03-01T22:18:58.735Z,66.21
2019-03-01T22:21:26.616Z,66.33
2019-03-01T22:23:55.481Z,66.11
2019-03-01T22:26:24.113Z,65.34
2019-03-01T22:28:52.889Z,64.84
2019-03-01T22:31:21.926Z,64.77
2019-03-01T22:33:52.653Z,65.07
2019-03-01T22:36:21.115Z,64.96
2019-03-01T22:38:49.381Z,64.44
2019-03-01T22:41:18.028Z,65.04
2019-03-01T22:43:46.361Z,64.82
2019-03-01T22:46:15.124Z,64.71
2019-03-01T22:48:47.142Z,64.87
2019-03-01T22:51:14.431Z,65.56
2019-03-01T22:53:44.203Z,64.45
2019-03-01T22:56:13.143Z,64.40
2019-03-01T22:58:41.368Z,65.72
2019-03-01T23:01:16.744Z,64.72
2019-03-01T23:03:51.572Z,64.90
2019-03-01T23:06:20.561Z,64.80
2019-03-01T23:08:48.763Z,65.00
2019-03-01T23:11:17.071Z,65.17
2019-03-01T23:13:45.418Z,64.35
2019-03-01T23:16:15.967Z,63.67
2019-03-01T23:18:44.156Z,63.25
2019-03-01T23:21:12.504Z,62.01
2019-03-01T23:23:40.952Z,62.54
2019-03-01T23:26:09.481Z,62.63
2019-03-01T23:28:40.765Z,63.81
2019-03-01T23:31:08.124Z,63.58
2019-03-01T23:33:36.361Z,61.38
2019-03-01T23:36:05.112Z,63.15
2019-03-01T23:38:33.411Z,63.54
2019-03-01T23:41:01.741Z,63.78
2019-03-01T23:43:30.876Z,63.45
2019-03-01T23:46:00.054Z,64.31
2019-03-01T23:48:28.573Z,64.68
2019-03-01T23:50:56.917Z,63.46
2019-03-01T23:53:25.185Z,62.95
2019-03-01T23:55:54.693Z,63.60
2019-03-01T23:58:23.632Z,64.17
